Time;durP1;ratioP1;P1;durP2;ratioP2;P2;SDS_P1;SDS_P2;PMS_P1;PMS_P2;Temp;Humidity;BMP_temperature;BMP_pressure;BME280_temperature;BME280_humidity;BME280_pressure;Samples;Min_cycle;Max_cycle;Signal;HPM_P1;HPM_P2
2021/08/31 00:02:24;;;;;;;2.90;1.80;;;;;;;16.31;100.00;98152.72;5093168;28;20263;-73
2021/08/31 00:04:50;;;;;;;3.00;2.13;;;;;;;16.32;100.00;98159.91;5092917;28;20205;-74
2021/08/31 00:07:17;;;;;;;4.37;1.80;;;;;;;16.36;100.00;98167.16;5092219;28;20289;-75
2021/08/31 00:09:44;;;;;;;2.47;1.80;;;;;;;16.34;100.00;98157.53;5093276;28;20211;-74
2021/08/31 00:12:10;;;;;;;2.97;2.00;;;;;;;16.30;100.00;98159.47;5093104;28;20778;-73
2021/08/31 00:14:37;;;;;;;3.03;2.07;;;;;;;16.45;100.00;98164.91;5090529;28;20246;-73
2021/08/31 00:17:05;;;;;;;8.23;2.30;;;;;;;16.45;100.00;98158.50;5092313;28;20219;-74
2021/08/31 00:19:32;;;;;;;2.57;1.90;;;;;;;16.50;100.00;98158.22;5092897;28;20764;-73
2021/08/31 00:21:59;;;;;;;5.47;2.27;;;;;;;16.45;100.00;98166.88;5091897;28;20316;-73
2021/08/31 00:24:25;;;;;;;1.80;1.43;;;;;;;16.42;100.00;98171.22;5093130;28;20205;-75
2021/08/31 00:26:52;;;;;;;1.87;1.70;;;;;;;16.38;100.00;98170.34;5092507;28;20299;-74
2021/08/31 00:29:18;;;;;;;2.33;2.10;;;;;;;16.38;100.00;98169.56;5092699;28;20197;-74
2021/08/31 00:31:45;;;;;;;3.77;2.30;;;;;;;16.32;100.00;98168.25;5091197;28;20208;-75
2021/08/31 00:34:11;;;;;;;2.60;2.07;;;;;;;16.41;100.00;98163.22;5073252;28;20291;-76
2021/08/31 00:36:38;;;;;;;2.03;1.63;;;;;;;16.41;100.00;98166.00;5072875;28;20201;-73
2021/08/31 00:39:04;;;;;;;2.93;1.93;;;;;;;16.42;100.00;98162.06;5072341;28;20312;-74
2021/08/31 00:41:31;;;;;;;3.77;2.00;;;;;;;16.37;100.00;98165.16;5071196;28;20201;-74
2021/08/31 00:43:57;;;;;;;2.60;1.90;;;;;;;16.38;100.00;98169.56;5071582;28;20678;-73
2021/08/31 00:46:24;;;;;;;2.67;1.70;;;;;;;16.36;100.00;98160.75;5071941;28;20296;-73
2021/08/31 00:48:51;;;;;;;3.67;1.70;;;;;;;16.35;100.00;98165.53;5067776;28;20277;-73
2021/08/31 00:51:20;;;;;;;3.27;2.10;;;;;;;16.34;100.00;98163.13;5052232;28;20253;-72
2021/08/31 00:53:49;;;;;;;2.63;2.07;;;;;;;16.28;100.00;98165.41;5051653;28;20782;-73
2021/08/31 00:56:16;;;;;;;1.87;1.60;;;;;;;16.29;100.00;98166.22;5060013;28;20288;-74
2021/08/31 00:58:43;;;;;;;2.37;1.90;;;;;;;16.36;100.00;98166.34;5071661;28;20304;-74
2021/08/31 01:34:25;;;;;;;4.07;2.90;;;;;;;15.96;100.00;98215.00;5109353;27;20495;-73
2021/08/31 01:36:52;;;;;;;3.37;2.37;;;;;;;16.13;100.00;98211.72;5109102;28;20677;-73
2021/08/31 01:39:19;;;;;;;3.30;2.43;;;;;;;16.27;100.00;98213.13;5109490;28;20218;-72
2021/08/31 01:41:46;;;;;;;3.53;2.47;;;;;;;16.32;100.00;98205.28;5109258;28;20571;-73
2021/08/31 01:44:12;;;;;;;3.33;2.60;;;;;;;16.42;100.00;98199.09;5107747;28;20210;-74
2021/08/31 01:46:39;;;;;;;5.40;3.20;;;;;;;16.29;100.00;98199.66;5107599;28;20207;-73
2021/08/31 01:49:06;;;;;;;3.60;2.70;;;;;;;16.37;100.00;98190.25;5103787;28;20224;-74
2021/08/31 01:51:32;;;;;;;3.97;2.60;;;;;;;16.25;100.00;98188.44;5088977;28;20205;-73
2021/08/31 01:53:59;;;;;;;3.30;2.23;;;;;;;16.25;100.00;98182.88;5088338;28;20315;-73
2021/08/31 01:56:26;;;;;;;3.80;2.57;;;;;;;16.40;100.00;98183.91;5098240;28;20206;-75
2021/08/31 01:58:52;;;;;;;3.47;2.60;;;;;;;16.45;100.00;98180.78;5108944;28;20286;-74
2021/08/31 02:01:19;;;;;;;3.63;2.50;;;;;;;16.39;100.00;98176.72;5108936;28;20844;-74
2021/08/31 02:03:45;;;;;;;4.07;2.80;;;;;;;16.34;100.00;98174.25;5108460;28;20220;-72
2021/08/31 02:06:12;;;;;;;3.87;2.67;;;;;;;16.22;100.00;98178.84;5108664;28;20299;-74
2021/08/31 02:08:38;;;;;;;3.80;2.60;;;;;;;16.30;100.00;98176.97;5107773;28;20200;-74
2021/08/31 02:11:05;;;;;;;2.80;2.30;;;;;;;16.35;100.00;98168.31;5107447;28;20590;-74
2021/08/31 02:13:31;;;;;;;3.20;2.27;;;;;;;16.35;100.00;98173.09;5108157;28;20227;-74
2021/08/31 02:15:58;;;;;;;3.50;2.37;;;;;;;16.37;100.00;98173.53;5108665;28;20242;-73
2021/08/31 02:18:24;;;;;;;3.50;2.50;;;;;;;16.37;100.00;98171.53;5108813;28;20210;-74
2021/08/31 02:20:51;;;;;;;2.67;2.17;;;;;;;16.45;100.00;98175.22;5107560;28;20208;-73
2021/08/31 02:23:17;;;;;;;2.67;2.07;;;;;;;16.48;100.00;98168.94;5107063;28;20228;-73
2021/08/31 02:25:43;;;;;;;7.93;2.33;;;;;;;16.48;100.00;98174.50;5106688;28;20214;-75
2021/08/31 02:28:10;;;;;;;4.83;2.70;;;;;;;16.44;100.00;98173.63;5090333;28;20269;-73
2021/08/31 02:30:36;;;;;;;3.90;2.63;;;;;;;16.43;100.00;98172.00;5108634;28;20240;-74
2021/08/31 02:33:03;;;;;;;2.93;2.30;;;;;;;16.35;100.00;98164.72;5106720;28;20228;-74
2021/08/31 02:35:29;;;;;;;4.07;2.40;;;;;;;16.43;100.00;98167.25;5107944;28;20294;-76
2021/08/31 02:37:56;;;;;;;3.67;2.27;;;;;;;16.46;100.00;98171.28;5108532;28;20235;-73
2021/08/31 02:40:23;;;;;;;2.50;2.20;;;;;;;16.44;100.00;98168.84;5108361;28;20257;-75
2021/08/31 02:42:49;;;;;;;3.00;2.00;;;;;;;16.31;100.00;98164.69;5107861;28;20216;-74
2021/08/31 02:45:16;;;;;;;2.63;2.07;;;;;;;16.34;100.00;98168.69;5095813;28;20200;-74
2021/08/31 02:47:42;;;;;;;3.13;2.33;;;;;;;16.36;100.00;98171.91;5093652;28;20236;-74
2021/08/31 02:50:09;;;;;;;4.67;2.17;;;;;;;16.42;100.00;98171.22;5091001;28;20655;-75
2021/08/31 02:52:35;;;;;;;2.80;1.73;;;;;;;16.48;100.00;98172.53;5071385;28;20240;-75
2021/08/31 02:55:02;;;;;;;2.53;1.70;;;;;;;16.54;100.00;98173.00;5091097;28;20235;-73
2021/08/31 02:57:29;;;;;;;2.93;2.07;;;;;;;16.42;100.00;98168.44;5126772;28;20235;-75
2021/08/31 02:59:55;;;;;;;5.30;1.87;;;;;;;16.31;100.00;98170.25;5117873;28;20221;-75
2021/08/31 03:02:22;;;;;;;2.50;1.90;;;;;;;16.34;100.00;98174.25;5131598;28;20279;-74
2021/08/31 03:04:48;;;;;;;2.37;1.67;;;;;;;16.39;100.00;98168.34;5132921;28;20238;-73
2021/08/31 03:07:15;;;;;;;3.73;2.33;;;;;;;16.46;100.00;98179.63;5122414;28;20646;-76
2021/08/31 03:09:42;;;;;;;2.70;1.77;;;;;;;16.49;100.00;98171.34;5114847;28;20307;-74
2021/08/31 03:12:09;;;;;;;2.83;1.93;;;;;;;16.49;100.00;98176.13;5113729;28;20294;-74
2021/08/31 03:14:36;;;;;;;3.20;1.90;;;;;;;16.46;100.00;98171.28;5114029;28;20223;-75
2021/08/31 03:17:03;;;;;;;3.80;1.90;;;;;;;16.43;100.00;98177.56;5112943;28;20207;-74
2021/08/31 03:19:30;;;;;;;3.53;2.00;;;;;;;16.44;100.00;98179.19;5114507;28;20310;-74
2021/08/31 03:21:59;;;;;;;2.50;1.80;;;;;;;16.47;100.00;98173.72;5113794;28;20223;-75
2021/08/31 03:24:26;;;;;;;2.40;1.80;;;;;;;16.47;100.00;98184.00;5112684;28;20566;-74
2021/08/31 03:26:53;;;;;;;2.63;1.87;;;;;;;16.39;100.00;98187.84;5113982;28;20633;-73
2021/08/31 03:29:20;;;;;;;3.00;1.73;;;;;;;16.36;100.00;98188.63;5114041;28;20571;-72
2021/08/31 03:31:47;;;;;;;1.77;1.37;;;;;;;16.32;100.00;98198.88;5111938;28;20200;-73
2021/08/31 03:34:13;;;;;;;1.83;1.50;;;;;;;16.36;100.00;98200.56;5093217;28;20228;-73
2021/08/31 03:36:40;;;;;;;2.53;1.63;;;;;;;16.37;100.00;98204.16;5093868;28;20222;-74
2021/08/31 03:39:06;;;;;;;2.67;2.13;;;;;;;16.30;100.00;98210.41;5100990;28;20207;-73
2021/08/31 03:41:33;;;;;;;3.40;2.20;;;;;;;16.39;100.00;98212.94;5114208;28;20259;-75
2021/08/31 03:44:00;;;;;;;5.20;2.10;;;;;;;16.29;100.00;98221.94;5106367;28;20232;-73
2021/08/31 03:46:26;;;;;;;3.20;2.03;;;;;;;16.14;100.00;98220.88;5093264;28;20214;-73
2021/08/31 03:48:53;;;;;;;2.87;1.80;;;;;;;16.19;100.00;98231.69;5089752;28;20205;-73
2021/08/31 03:51:19;;;;;;;1.97;1.73;;;;;;;16.27;100.00;98227.06;5073276;28;20299;-73
2021/08/31 03:53:46;;;;;;;6.00;1.87;;;;;;;16.11;100.00;98222.41;5072360;28;20221;-74
2021/08/31 03:56:12;;;;;;;3.57;2.10;;;;;;;16.14;100.00;98227.25;5079664;28;20295;-73
2021/08/31 03:58:39;;;;;;;2.50;1.70;;;;;;;16.14;100.00;98223.66;5093323;28;20215;-74
2021/08/31 04:01:05;;;;;;;2.57;1.73;;;;;;;16.20;100.00;98225.75;5092210;28;20205;-74
2021/08/31 04:03:32;;;;;;;2.07;1.57;;;;;;;16.26;100.00;98226.25;5091439;28;20228;-74
2021/08/31 04:05:58;;;;;;;3.80;2.10;;;;;;;16.38;100.00;98222.47;5091665;28;20677;-74
2021/08/31 04:08:25;;;;;;;3.93;2.07;;;;;;;16.21;100.00;98227.38;5093122;28;20228;-75
2021/08/31 04:10:51;;;;;;;3.17;1.70;;;;;;;16.31;100.00;98227.94;5095665;28;20267;-74
2021/08/31 04:13:18;;;;;;;2.67;1.70;;;;;;;16.38;100.00;98233.63;5101046;28;20292;-74
2021/08/31 04:16:16;;;;;;;3.93;1.80;;;;;;;16.32;100.00;98232.31;5085759;28;20229;-75
2021/08/31 04:18:42;;;;;;;2.17;1.63;;;;;;;16.29;100.00;98238.63;5087757;28;21043;-74
2021/08/31 04:21:09;;;;;;;2.90;1.57;;;;;;;16.35;100.00;98240.72;5079838;28;20281;-75
2021/08/31 04:23:35;;;;;;;2.33;1.77;;;;;;;16.41;100.00;98235.66;5078207;28;20256;-73
2021/08/31 04:26:02;;;;;;;2.47;1.40;;;;;;;16.42;100.00;98243.66;5071393;28;20220;-73
2021/08/31 04:28:28;;;;;;;2.50;1.60;;;;;;;16.39;100.00;98238.00;5072726;28;20231;-72
2021/08/31 04:30:55;;;;;;;1.50;1.20;;;;;;;16.39;100.00;98249.94;5073079;28;20252;-73
2021/08/31 04:33:21;;;;;;;2.60;1.77;;;;;;;16.43;100.00;98248.03;5086103;28;20228;-73
2021/08/31 04:35:48;;;;;;;2.07;1.60;;;;;;;16.46;100.00;98243.72;5090820;28;20669;-73
2021/08/31 04:38:14;;;;;;;3.30;2.03;;;;;;;16.42;100.00;98249.22;5092645;28;20215;-73
2021/08/31 04:40:41;;;;;;;1.73;1.43;;;;;;;16.43;100.00;98241.66;5092655;28;20205;-73
2021/08/31 04:43:07;;;;;;;2.20;1.77;;;;;;;16.40;100.00;98240.44;5092038;28;20776;-74
2021/08/31 04:45:34;;;;;;;2.60;1.77;;;;;;;16.42;100.00;98240.06;5091827;28;20299;-73
2021/08/31 04:48:00;;;;;;;2.67;1.90;;;;;;;16.46;100.00;98238.91;5092480;28;20315;-72
2021/08/31 04:50:27;;;;;;;2.47;1.80;;;;;;;16.45;100.00;98245.69;5074433;28;20291;-76
2021/08/31 04:52:53;;;;;;;2.00;1.60;;;;;;;16.47;100.00;98246.16;5071797;28;20316;-75
2021/08/31 04:55:20;;;;;;;2.77;1.73;;;;;;;16.58;100.00;98241.56;5071808;28;20201;-74
2021/08/31 04:57:46;;;;;;;1.93;1.70;;;;;;;16.51;100.00;98240.63;5092197;28;20217;-74
2021/08/31 05:00:15;;;;;;;3.50;2.03;;;;;;;16.46;100.00;98241.72;5091898;28;20295;-74
2021/08/31 05:02:41;;;;;;;3.17;1.70;;;;;;;16.41;100.00;98241.22;5092377;28;20220;-73
2021/08/31 05:05:08;;;;;;;2.37;1.73;;;;;;;16.59;100.00;98245.13;5091597;28;20303;-76
2021/08/31 05:07:36;;;;;;;3.47;1.63;;;;;;;18.73;100.00;98238.53;5091963;28;20209;-73
2021/08/31 05:10:03;;;;;;;2.23;1.90;;;;;;;17.28;100.00;98205.50;5092090;28;20204;-73
2021/08/31 05:12:29;;;;;;;3.30;1.80;;;;;;;16.90;100.00;98214.13;5091800;28;20231;-73
2021/08/31 05:14:59;;;;;;;2.30;1.90;;;;;;;16.94;100.00;98221.38;5090888;28;20228;-76
2021/08/31 05:17:26;;;;;;;4.17;1.70;;;;;;;16.94;100.00;98220.56;5091690;28;20329;-75
2021/08/31 05:19:52;;;;;;;2.77;1.77;;;;;;;17.02;100.00;98223.06;5090330;28;20214;-73
2021/08/31 05:22:19;;;;;;;2.87;1.90;;;;;;;17.09;100.00;98230.75;5091542;28;20816;-73
2021/08/31 05:24:46;;;;;;;2.70;1.83;;;;;;;17.03;100.00;98226.69;5089892;28;20813;-72
2021/08/31 05:27:13;;;;;;;1.93;1.60;;;;;;;17.16;100.00;98231.66;5092173;28;20205;-74
2021/08/31 05:29:39;;;;;;;2.33;1.73;;;;;;;17.13;100.00;98237.19;5091745;28;20379;-74
2021/08/31 05:32:06;;;;;;;3.43;2.00;;;;;;;17.01;100.00;98235.44;5091600;28;20221;-76
2021/08/31 05:34:33;;;;;;;3.27;2.20;;;;;;;17.08;100.00;98237.50;5090174;28;20231;-74
2021/08/31 05:36:59;;;;;;;3.30;1.93;;;;;;;17.15;100.00;98248.78;5091284;28;20303;-73
2021/08/31 05:39:32;;;;;;;3.50;2.00;;;;;;;17.15;100.00;98254.34;5091533;28;20641;-74
2021/08/31 05:42:05;;;;;;;2.40;1.73;;;;;;;17.22;100.00;98254.44;5091358;28;20220;-73
2021/08/31 05:44:33;;;;;;;4.80;2.23;;;;;;;17.07;100.00;98258.22;5091334;28;20251;-74
2021/08/31 05:47:00;;;;;;;3.33;1.93;;;;;;;17.13;100.00;98253.94;5091317;28;20312;-73
2021/08/31 05:49:26;;;;;;;3.37;2.30;;;;;;;17.21;100.00;98263.97;5091818;28;20204;-73
2021/08/31 05:51:53;;;;;;;3.53;2.20;;;;;;;17.22;100.00;98260.03;5091527;28;20322;-73
2021/08/31 05:54:26;;;;;;;3.03;2.07;;;;;;;17.23;100.00;98273.59;5089697;28;20220;-73
2021/08/31 05:56:57;;;;;;;3.13;2.57;;;;;;;17.16;100.00;98272.69;5091636;28;20657;-74
2021/08/31 05:59:24;;;;;;;4.00;2.17;;;;;;;17.21;100.00;98261.19;5092285;28;20207;-74
2021/08/31 06:01:54;;;;;;;4.63;1.83;;;;;;;17.14;100.00;98275.84;5093864;28;20224;-73
2021/08/31 06:04:38;;;;;;;3.90;2.30;;;;;;;17.19;100.00;98271.91;5094661;28;20254;-74
2021/08/31 06:07:10;;;;;;;6.30;2.30;;;;;;;17.26;100.00;98266.47;5090718;28;20584;-74
2021/08/31 06:09:39;;;;;;;3.30;1.97;;;;;;;17.47;100.00;98265.91;5092669;28;20622;-74
2021/08/31 06:12:07;;;;;;;2.63;2.23;;;;;;;17.58;100.00;98256.53;5092297;28;20225;-73
2021/08/31 06:14:34;;;;;;;3.13;2.50;;;;;;;17.67;100.00;98257.03;5090625;28;20252;-74
2021/08/31 06:17:01;;;;;;;7.97;2.90;;;;;;;17.97;100.00;98245.81;5091064;28;20243;-75
2021/08/31 06:19:28;;;;;;;4.07;2.50;;;;;;;17.78;100.00;98254.38;5091919;28;20231;-73
2021/08/31 06:21:54;;;;;;;3.73;2.43;;;;;;;17.56;100.00;98246.91;5095277;28;20220;-74
2021/08/31 06:24:21;;;;;;;3.53;2.23;;;;;;;17.77;100.00;98253.56;5094998;28;20206;-73
2021/08/31 06:26:47;;;;;;;3.33;2.43;;;;;;;18.25;100.00;98253.69;5094725;28;20204;-75
2021/08/31 06:29:14;;;;;;;4.57;2.60;;;;;;;18.23;100.00;98243.66;5093711;28;20205;-74
2021/08/31 06:31:40;;;;;;;2.70;2.07;;;;;;;18.06;100.00;98243.50;5094801;28;20223;-75
2021/08/31 06:34:07;;;;;;;3.70;2.93;;;;;;;17.89;100.00;98244.94;5093104;28;20224;-74
2021/08/31 06:36:33;;;;;;;3.07;2.40;;;;;;;17.91;100.00;98259.31;5094476;28;20578;-73
2021/08/31 06:39:00;;;;;;;4.37;3.17;;;;;;;17.87;100.00;98268.81;5094849;28;20204;-73
2021/08/31 06:41:26;;;;;;;2.93;2.30;;;;;;;17.87;100.00;98263.25;5093476;28;20624;-74
2021/08/31 06:43:53;;;;;;;5.30;3.30;;;;;;;18.06;100.00;98266.63;5094482;28;20311;-73
2021/08/31 06:46:19;;;;;;;3.80;2.53;;;;;;;17.88;100.00;98262.06;5094495;28;20308;-74
2021/08/31 06:49:06;;;;;;;4.53;2.65;;;;;;;18.17;100.00;98259.16;5088142;28;20209;-74
2021/08/31 06:51:32;;;;;;;4.17;2.73;;;;;;;18.09;100.00;98260.31;5074255;28;20288;-73
2021/08/31 06:54:02;;;;;;;2.97;2.27;;;;;;;18.14;100.00;98254.34;5073744;28;20232;-75
2021/08/31 06:56:28;;;;;;;5.53;2.90;;;;;;;18.21;100.00;98260.00;5083859;28;20215;-75
2021/08/31 06:58:55;;;;;;;4.53;2.53;;;;;;;18.16;100.00;98262.34;5094266;28;20211;-74
2021/08/31 07:01:21;;;;;;;4.90;2.97;;;;;;;18.31;100.00;98257.69;5094520;28;20298;-74
2021/08/31 07:03:48;;;;;;;3.47;2.93;;;;;;;18.05;100.00;98259.47;5093939;28;20292;-74
2021/08/31 07:06:16;;;;;;;3.37;2.30;;;;;;;18.33;100.00;98258.13;5092883;28;20200;-76
2021/08/31 07:08:42;;;;;;;2.90;2.37;;;;;;;18.23;100.00;98265.22;5094150;28;20257;-75
2021/08/31 07:11:09;;;;;;;4.80;3.27;;;;;;;18.13;100.00;98261.16;5092617;28;20696;-75
2021/08/31 07:13:35;;;;;;;4.13;3.03;;;;;;;18.21;100.00;98270.38;5093386;28;20231;-74
2021/08/31 07:16:02;;;;;;;4.23;3.00;;;;;;;18.13;100.00;98272.31;5094072;28;20299;-74
2021/08/31 07:18:28;;;;;;;3.70;2.60;;;;;;;18.14;100.00;98262.75;5094125;28;20207;-74
2021/08/31 07:20:55;;;;;;;4.07;2.67;;;;;;;18.23;100.00;98273.59;5094013;28;20261;-72
2021/08/31 07:23:21;;;;;;;3.60;2.60;;;;;;;18.25;100.00;98268.44;5093466;28;20675;-74
2021/08/31 07:25:48;;;;;;;3.53;2.53;;;;;;;18.19;100.00;98278.38;5093492;28;20296;-74
2021/08/31 07:28:15;;;;;;;7.63;3.17;;;;;;;18.28;100.00;98269.66;5094205;28;20685;-72
2021/08/31 07:30:42;;;;;;;4.47;3.20;;;;;;;18.03;100.00;98278.59;5104502;28;20232;-74
2021/08/31 07:33:10;;;;;;;4.73;2.97;;;;;;;18.23;100.00;98288.38;5110761;28;20323;-74
2021/08/31 07:35:37;;;;;;;4.57;3.20;;;;;;;18.33;100.00;98280.47;5112889;28;20659;-73
2021/08/31 07:38:05;;;;;;;4.90;2.70;;;;;;;18.50;100.00;98291.06;5113917;28;20294;-74
2021/08/31 07:40:32;;;;;;;9.10;2.83;;;;;;;18.40;100.00;98286.94;5113629;28;20668;-73
2021/08/31 07:42:59;;;;;;;4.30;2.77;;;;;;;18.51;100.00;98287.06;5104894;28;20232;-73
2021/08/31 07:45:26;;;;;;;5.38;3.03;;;;;;;18.58;100.00;98292.72;5092485;28;20291;-73
2021/08/31 07:47:52;;;;;;;4.20;2.60;;;;;;;18.33;100.00;98291.66;5093160;28;20228;-73
2021/08/31 07:50:19;;;;;;;4.33;2.83;;;;;;;18.39;100.00;98298.50;5077530;28;20208;-74
2021/08/31 07:52:47;;;;;;;3.00;2.63;;;;;;;18.23;100.00;98309.13;5071596;28;20259;-73
2021/08/31 07:55:14;;;;;;;5.47;2.90;;;;;;;18.23;100.00;98309.91;5072118;28;20224;-74
2021/08/31 07:57:40;;;;;;;3.80;2.57;;;;;;;18.13;100.00;98311.44;5092063;28;20295;-74
2021/08/31 08:00:09;;;;;;;4.67;2.93;;;;;;;18.21;100.00;98312.28;5092474;28;20269;-74
2021/08/31 08:02:36;;;;;;;5.67;2.90;;;;;;;18.14;100.00;98307.44;5100323;28;20307;-74
2021/08/31 08:05:04;;;;;;;8.67;3.67;;;;;;;18.45;100.00;98322.16;5111183;28;20268;-74
2021/08/31 08:07:31;;;;;;;3.93;2.57;;;;;;;18.44;100.00;98312.97;5099786;28;20672;-74
2021/08/31 08:09:58;;;;;;;3.37;2.53;;;;;;;18.36;100.00;98324.41;5091815;28;20220;-74
2021/08/31 08:12:25;;;;;;;3.50;2.73;;;;;;;17.88;100.00;98315.91;5093037;28;20275;-74
2021/08/31 08:14:54;;;;;;;3.70;2.60;;;;;;;18.27;100.00;98332.31;5092283;28;20228;-74
2021/08/31 08:17:22;;;;;;;3.77;2.43;;;;;;;18.52;100.00;98325.03;5092872;28;20244;-73
2021/08/31 08:19:49;;;;;;;4.23;3.13;;;;;;;18.55;100.00;98321.44;5092621;28;20829;-73
2021/08/31 08:22:17;;;;;;;3.47;2.80;;;;;;;19.03;100.00;98312.66;5092493;28;20231;-74
2021/08/31 08:24:44;;;;;;;5.87;3.47;;;;;;;19.06;100.00;98309.09;5092101;28;20207;-74
2021/08/31 08:27:11;;;;;;;3.90;2.72;;;;;;;19.28;100.00;98300.84;5093267;28;20196;-76
2021/08/31 08:29:38;;;;;;;3.93;2.73;;;;;;;19.30;100.00;98301.25;5092456;28;20211;-74
2021/08/31 08:32:09;;;;;;;4.65;3.03;;;;;;;19.36;100.00;98300.50;5093116;28;20303;-75
2021/08/31 08:34:36;;;;;;;5.93;2.72;;;;;;;19.20;100.00;98297.19;5098091;28;20247;-74
2021/08/31 08:37:03;;;;;;;3.00;2.38;;;;;;;19.36;100.00;98294.91;5101856;28;20216;-75
2021/08/31 08:39:32;;;;;;;6.07;2.83;;;;;;;18.93;100.00;98293.81;5093706;28;20300;-74
2021/08/31 08:41:58;;;;;;;4.05;3.35;;;;;;;19.06;100.00;98294.31;5091884;28;20697;-74
2021/08/31 08:44:27;;;;;;;4.75;2.95;;;;;;;19.14;100.00;98295.97;5092167;28;20208;-73
2021/08/31 08:46:55;;;;;;;5.22;3.15;;;;;;;19.56;100.00;98293.41;5090960;28;20231;-74
2021/08/31 08:49:22;;;;;;;5.40;3.08;;;;;;;19.50;100.00;98283.81;5084862;28;20316;-74
2021/08/31 08:51:49;;;;;;;4.43;2.35;;;;;;;19.67;100.00;98276.69;5070534;28;20666;-74
2021/08/31 08:54:16;;;;;;;4.28;2.60;;;;;;;20.11;100.00;98269.63;5071535;28;20312;-74
2021/08/31 08:56:43;;;;;;;3.78;2.42;;;;;;;20.99;100.00;98268.88;5083463;28;20267;-74
2021/08/31 08:59:10;;;;;;;4.45;3.05;;;;;;;22.67;100.00;98244.09;5093757;28;20219;-73
2021/08/31 09:01:47;;;;;;;5.15;3.00;;;;;;;23.34;100.00;98238.63;5092311;28;20295;-74
2021/08/31 09:04:17;;;;;;;3.30;2.30;;;;;;;24.84;100.00;98217.19;5090958;28;20226;-74
2021/08/31 09:06:45;;;;;;;4.80;2.80;;;;;;;24.31;100.00;98206.75;5091868;28;20227;-75
2021/08/31 09:09:12;;;;;;;2.80;2.38;;;;;;;24.37;100.00;98198.59;5091772;28;20204;-73
2021/08/31 09:11:46;;;;;;;3.15;2.20;;;;;;;23.72;100.00;98205.56;5091768;28;20201;-74
2021/08/31 09:14:27;;;;;;;3.50;2.65;;;;;;;23.42;100.00;98214.81;5091527;28;20201;-75
2021/08/31 09:16:56;;;;;;;3.88;2.47;;;;;;;23.53;100.00;98215.47;5091675;28;20204;-75
2021/08/31 09:19:35;;;;;;;3.25;2.30;;;;;;;23.21;100.00;98231.13;5091853;28;20299;-74
2021/08/31 09:22:17;;;;;;;2.40;1.92;;;;;;;22.83;100.00;98235.91;5090306;28;20243;-74
2021/08/31 09:24:56;;;;;;;4.15;2.60;;;;;;;22.49;100.00;98226.53;5090579;28;20203;-74
2021/08/31 09:27:37;;;;;;;3.03;2.65;;;;;;;21.97;100.00;98239.72;5091750;28;20304;-74
2021/08/31 09:30:15;;;;;;;2.53;1.90;;;;;;;21.87;100.00;98246.22;5090313;28;20352;-73
2021/08/31 09:33:06;;;;;;;3.13;2.50;;;;;;;21.55;100.00;98251.16;5090923;28;20319;-73
2021/08/31 09:35:42;;;;;;;3.47;2.78;;;;;;;21.00;100.00;98262.91;5091102;28;20244;-75
2021/08/31 09:38:12;;;;;;;3.33;2.80;;;;;;;21.17;100.00;98268.91;5091265;28;20290;-75
2021/08/31 09:40:40;;;;;;;3.78;3.10;;;;;;;21.55;100.00;98257.53;5091615;28;20608;-75
2021/08/31 09:43:15;;;;;;;4.13;3.13;;;;;;;21.66;100.00;98255.50;5090917;28;20317;-75
2021/08/31 09:45:45;;;;;;;3.15;2.45;;;;;;;21.75;100.00;98261.47;5089682;28;20664;-75
2021/08/31 09:48:14;;;;;;;5.63;3.33;;;;;;;21.81;100.00;98262.69;5089898;28;20247;-74
2021/08/31 09:50:42;;;;;;;3.15;2.33;;;;;;;21.47;100.00;98266.41;5072791;28;20296;-74
2021/08/31 09:53:13;;;;;;;3.75;3.00;;;;;;;21.16;100.00;98284.94;5069808;28;20229;-73
2021/08/31 09:55:42;;;;;;;4.63;3.10;;;;;;;21.33;100.00;98284.09;5076838;28;20315;-73
2021/08/31 09:58:23;;;;;;;4.78;2.90;;;;;;;21.16;100.00;98284.94;5093981;28;20219;-75
2021/08/31 10:00:52;;;;;;;4.18;2.88;;;;;;;21.25;100.00;98281.72;5094966;28;20287;-75
2021/08/31 10:03:21;;;;;;;4.88;3.38;;;;;;;20.92;100.00;98294.16;5092279;28;20236;-75
2021/08/31 10:05:49;;;;;;;3.30;2.20;;;;;;;20.85;100.00;98305.38;5093980;28;20285;-74
2021/08/31 10:08:17;;;;;;;5.18;3.42;;;;;;;20.88;100.00;98313.00;5094043;28;20253;-74
2021/08/31 10:10:46;;;;;;;5.93;2.90;;;;;;;20.60;100.00;98313.78;5091923;28;20610;-74
2021/08/31 10:13:18;;;;;;;8.63;3.20;;;;;;;20.29;100.00;98324.97;5094260;28;20234;-75
2021/08/31 10:15:47;;;;;;;5.15;3.00;;;;;;;20.37;100.00;98340.56;5092340;28;20290;-76
2021/08/31 10:18:16;;;;;;;3.70;2.65;;;;;;;20.44;100.00;98332.19;5094139;28;20299;-76
2021/08/31 10:20:51;;;;;;;3.25;2.35;;;;;;;20.33;100.00;98353.81;5094210;28;20664;-75
2021/08/31 10:23:26;;;;;;;3.47;2.60;;;;;;;20.18;100.00;98359.34;5093481;28;20232;-73
2021/08/31 10:25:52;;;;;;;3.78;2.85;;;;;;;20.09;100.00;98355.28;5093601;28;20291;-75
2021/08/31 10:28:27;;;;;;;3.17;2.42;;;;;;;19.98;100.00;98360.84;5094007;28;20219;-75
2021/08/31 10:30:55;;;;;;;3.75;2.80;;;;;;;19.68;100.00;98360.31;5089648;28;20287;-76
2021/08/31 10:33:39;;;;;;;3.40;2.40;;;;;;;19.83;100.00;98348.00;5089390;28;20242;-75
2021/08/31 10:36:09;;;;;;;4.50;2.67;;;;;;;19.57;100.00;98356.63;5092310;28;20247;-73
2021/08/31 10:38:45;;;;;;;3.05;2.33;;;;;;;19.56;100.00;98354.25;5091275;28;20288;-75
2021/08/31 10:41:34;;;;;;;3.60;2.83;;;;;;;19.77;100.00;98352.34;5087757;28;20336;-74
2021/08/31 10:44:01;;;;;;;2.80;2.35;;;;;;;19.81;100.00;98355.97;5082887;28;20209;-76
2021/08/31 10:47:08;;;;;;;4.25;2.33;;;;;;;20.13;100.00;98362.50;5092882;28;20239;-73
2021/08/31 10:50:00;;;;;;;5.50;2.88;;;;;;;20.42;100.00;98357.03;5090186;28;20695;-75
2021/08/31 10:52:37;;;;;;;5.10;2.83;;;;;;;20.67;100.00;98355.06;5092447;28;20227;-75
2021/08/31 10:55:06;;;;;;;5.05;3.08;;;;;;;20.42;100.00;98341.00;5091850;28;20325;-73
2021/08/31 10:57:35;;;;;;;3.20;2.50;;;;;;;20.57;100.00;98337.03;5091374;28;20211;-76
2021/08/31 11:00:03;;;;;;;3.40;2.40;;;;;;;21.05;100.00;98334.69;5086874;28;20920;-73
2021/08/31 11:02:47;;;;;;;4.05;2.60;;;;;;;20.88;100.00;98329.81;5091172;28;20225;-74
2021/08/31 11:05:20;;;;;;;5.90;3.17;;;;;;;21.23;100.00;98329.03;5091876;28;20349;-75
2021/08/31 11:07:48;;;;;;;3.47;2.47;;;;;;;21.42;100.00;98326.63;5077456;28;20295;-73
2021/08/31 11:10:46;;;;;;;6.28;3.15;;;;;;;21.64;100.00;98311.28;5072672;28;20296;-73
2021/08/31 11:13:18;;;;;;;3.97;2.65;;;;;;;21.84;100.00;98312.44;5072344;28;20253;-73
2021/08/31 11:15:48;;;;;;;2.97;2.10;;;;;;;22.17;100.00;98317.53;5072195;28;20808;-74
2021/08/31 11:18:19;;;;;;;6.10;2.80;;;;;;;22.23;100.00;98306.66;5071550;28;20213;-77
2021/08/31 11:20:46;;;;;;;5.53;2.63;;;;;;;22.39;100.00;98300.53;5085548;28;20232;-74
2021/08/31 11:23:19;;;;;;;3.53;2.63;;;;;;;22.70;100.00;98305.19;5091354;28;20252;-75
2021/08/31 11:25:49;;;;;;;4.88;3.05;;;;;;;22.50;100.00;98290.03;5092572;28;20244;-74
2021/08/31 11:28:27;;;;;;;3.40;2.33;;;;;;;21.90;100.00;98291.16;5093022;28;21190;-74
2021/08/31 11:31:11;;;;;;;5.43;2.65;;;;;;;22.08;100.00;98291.88;5091052;28;20235;-73
2021/08/31 11:33:39;;;;;;;3.22;2.38;;;;;;;22.22;100.00;98295.81;5091464;28;20331;-76
2021/08/31 11:36:11;;;;;;;3.38;2.53;;;;;;;22.03;100.00;98286.69;5091962;28;20319;-74
2021/08/31 11:38:40;;;;;;;3.08;2.00;;;;;;;21.65;100.00;98293.25;5091486;28;20283;-74
2021/08/31 11:41:21;;;;;;;3.35;2.00;;;;;;;21.46;100.00;98292.91;5092622;28;20246;-75
2021/08/31 11:43:56;;;;;;;3.10;2.20;;;;;;;21.43;100.00;98319.78;5092501;28;20227;-75
2021/08/31 11:46:25;;;;;;;5.22;2.45;;;;;;;20.88;100.00;98329.81;5094539;28;20207;-74
2021/08/31 11:49:28;;;;;;;5.45;2.35;;;;;;;20.49;100.00;98335.38;5090466;28;20233;-74
2021/08/31 11:52:00;;;;;;;4.75;2.60;;;;;;;21.20;100.00;98333.47;5066238;28;20316;-73
2021/08/31 11:54:29;;;;;;;3.65;2.75;;;;;;;21.44;100.00;98334.63;5074099;28;20622;-74
2021/08/31 11:56:59;;;;;;;3.67;2.40;;;;;;;21.81;100.00;98330.13;5072228;28;20225;-75
2021/08/31 11:59:45;;;;;;;4.13;2.78;;;;;;;22.00;100.00;98315.63;5073149;28;20213;-74
2021/08/31 12:02:23;;;;;;;4.97;2.40;;;;;;;21.42;100.00;98320.19;5070168;28;20240;-73
2021/08/31 12:04:54;;;;;;;3.08;2.47;;;;;;;21.77;100.00;98314.47;5071019;28;20227;-73
2021/08/31 12:07:26;;;;;;;4.18;2.58;;;;;;;21.38;100.00;98320.19;5071250;28;20213;-73